Tyler, TX

7:38 AM CST on February 06, 2016 (GMT -0600)
Tyler Pounds | | Change Station
CLOSE
Current Station
Airport
Location: Tyler,
Elevation: 541 ft
Nearby Weather Stations

Elev 541 ft 32.35 °N, 95.40 °W | Updated 45 minutes ago

Overcast
Overcast
42 °F
Feels Like 36 °F
N
10
Wind Variable Wind from SE

Today
High -- | Low -- °F
--% Chance of Precip.
Yesterday
High -- | Low -- °F
Precip. -- in
Pressure 30.26 in
Visibility -9999.0 miles
Clouds Mostly Cloudy 2600 ft
Overcast 3300 ft
Windchill 36 °F
Dew Point 36 °F
Humidity 79%
Rainfall 0.04 in
Snow Depth Not available.
7:12 AM 5:59 PM
Waning Crescent, 5% visible
METAR KTYR 061253Z 13009KT BKN026 OVC033 06/02 A3026 RMK AO2 SLP247 T00560022 $
Pressure 30.26 in
Visibility -9999.0 miles
Clouds Mostly Cloudy 2600 ft
Overcast 3300 ft
Windchill 36 °F
Dew Point 36 °F
Humidity 79%
Rainfall 0.04 in
Snow Depth Not available.
7:12 AM 5:59 PM
Waning Crescent, 5% visible
METAR KTYR 061253Z 13009KT BKN026 OVC033 06/02 A3026 RMK AO2 SLP247 T00560022 $

10-Day Weather Forecast

Almanac

Astronomy

Feb. 06, 2016 Rise Set
Actual Time
Civil Twilight
Nautical Twilight
Astronomical Twilight
Moon
Length of Visible Light
Length of Day
Tomorrow will be .
, % of the Moon is Illuminated

Today's Extremes

State Highs State Lows

Community

WunderPhotos

Upload Photos

1,890,971 photos uploaded!

WunderBlog® & News

Nearby

Air Quality

  Air Quality AQ Index Pollutant
Not available.

Snow Depth

Station Depth Elevation

Earthquake Activity

City Distance Mag. Time & Date
Minimum magnitude displayed is 2.5.

Coastal Water Temperatures

Place Temperature

Stations

Nearby Weather Stations

Station Location Temp. Windchill Dew Point Humidity Wind Precip. Elev Updated Type
                   

Watches & Warnings

There are currently no watches in effect.